createdAt,value
2018-04-06T00:00:26.388Z,80.20
2018-04-06T00:02:54.040Z,80.50
2018-04-06T00:05:21.997Z,80.60
2018-04-06T00:07:50.378Z,81.00
2018-04-06T00:10:18.022Z,80.90
2018-04-06T00:12:46.583Z,81.20
2018-04-06T00:15:14.166Z,81.10
2018-04-06T00:17:42.912Z,81.60
2018-04-06T00:20:10.505Z,81.60
2018-04-06T00:22:38.863Z,81.80
2018-04-06T00:25:06.837Z,81.70
2018-04-06T00:27:34.433Z,80.70
2018-04-06T00:30:03.766Z,80.50
2018-04-06T00:32:31.369Z,80.60
2018-04-06T00:34:58.997Z,80.40
2018-04-06T00:37:27.217Z,80.80
2018-04-06T00:39:55.586Z,80.40
2018-04-06T00:42:23.488Z,80.30
2018-04-06T00:44:51.084Z,80.50
2018-04-06T00:47:18.675Z,80.80
2018-04-06T00:49:47.444Z,81.00
2018-04-06T00:52:15.030Z,80.90
2018-04-06T00:54:43.762Z,81.30
2018-04-06T00:57:11.342Z,81.30
2018-04-06T00:59:39.094Z,81.30
2018-04-06T01:02:07.672Z,81.50
2018-04-06T01:04:35.246Z,81.40
2018-04-06T01:07:03.114Z,81.30
2018-04-06T01:09:30.681Z,81.40
2018-04-06T01:11:58.626Z,81.30
2018-04-06T01:14:26.191Z,81.30
2018-04-06T01:16:54.046Z,81.50
2018-04-06T01:19:21.661Z,81.50
2018-04-06T01:21:50.017Z,81.60
2018-04-06T01:24:17.965Z,81.50
2018-04-06T01:26:45.569Z,81.50
2018-04-06T01:29:14.313Z,81.30
2018-04-06T01:31:41.911Z,81.10
2018-04-06T01:34:10.265Z,81.30
2018-04-06T01:36:38.304Z,81.20
2018-04-06T01:39:05.874Z,81.20
2018-04-06T01:41:33.991Z,81.30
2018-04-06T01:44:02.359Z,81.60
2018-04-06T01:46:29.931Z,81.40
2018-04-06T01:48:58.609Z,81.80
2018-04-06T01:51:26.954Z,82.20
2018-04-06T01:53:55.319Z,82.00
2018-04-06T01:56:22.918Z,81.90
2018-04-06T01:58:50.508Z,81.90
2018-04-06T02:01:18.726Z,82.00
2018-04-06T02:03:46.309Z,81.90
2018-04-06T02:06:14.504Z,82.30
2018-04-06T02:08:42.873Z,82.30
2018-04-06T02:11:11.190Z,82.40
2018-04-06T02:13:39.206Z,82.20
2018-04-06T02:16:06.792Z,82.60
2018-04-06T02:18:35.440Z,82.40
2018-04-06T02:21:03.029Z,82.30
2018-04-06T02:23:31.384Z,82.70
2018-04-06T02:25:59.487Z,82.60
2018-04-06T02:28:27.845Z,82.70
2018-04-06T02:30:55.687Z,82.70
2018-04-06T02:33:23.321Z,83.50
2018-04-06T02:35:50.893Z,82.60
2018-04-06T02:38:18.524Z,82.70
2018-04-06T02:40:46.098Z,82.80
2018-04-06T02:43:13.675Z,82.70
2018-04-06T02:45:41.276Z,82.90
2018-04-06T02:48:09.942Z,83.00
2018-04-06T02:50:37.539Z,82.80
2018-04-06T02:53:05.508Z,83.10
2018-04-06T02:55:33.858Z,83.10
2018-04-06T02:58:01.421Z,83.10
2018-04-06T03:00:30.217Z,83.50
2018-04-06T03:02:58.571Z,83.90
2018-04-06T03:05:26.409Z,83.90
2018-04-06T03:07:54.001Z,84.00
2018-04-06T03:10:21.582Z,84.10
2018-04-06T03:12:50.368Z,84.00
2018-04-06T03:15:18.708Z,84.20
2018-04-06T03:17:46.768Z,84.10
2018-04-06T03:20:14.351Z,84.30
2018-04-06T03:22:41.929Z,84.20
2018-04-06T03:25:09.518Z,84.50
2018-04-06T03:27:37.095Z,84.20
2018-04-06T03:30:04.682Z,84.50
2018-04-06T03:32:33.034Z,84.50
2018-04-06T03:35:00.934Z,84.50
2018-04-06T03:37:28.502Z,84.50
2018-04-06T03:39:56.575Z,84.80
2018-04-06T03:42:24.169Z,85.00
2018-04-06T03:44:52.122Z,85.20
2018-04-06T03:47:20.494Z,85.70
2018-04-06T03:49:48.844Z,86.30
2018-04-06T03:52:16.943Z,85.70
2018-04-06T03:54:45.301Z,86.10
2018-04-06T03:57:12.899Z,85.80
2018-04-06T03:59:40.526Z,86.00
2018-04-06T04:02:08.090Z,85.90
2018-04-06T04:04:35.695Z,86.00
2018-04-06T04:07:03.295Z,86.10
2018-04-06T04:09:30.929Z,86.00
2018-04-06T04:11:58.622Z,86.10
2018-04-06T04:14:26.768Z,86.00
2018-04-06T04:16:54.372Z,85.90
2018-04-06T04:19:22.425Z,86.10
2018-04-06T04:21:50.010Z,86.20
2018-04-06T04:24:18.370Z,87.20
2018-04-06T04:26:45.962Z,86.40
2018-04-06T04:29:14.317Z,86.50
2018-04-06T04:31:42.176Z,86.40
2018-04-06T04:34:09.744Z,86.50
2018-04-06T04:36:37.844Z,86.70
2018-04-06T04:39:06.267Z,87.00
2018-04-06T04:41:54.947Z,87.30
2018-04-06T04:44:23.088Z,87.20
2018-04-06T04:46:50.680Z,87.50
2018-04-06T04:49:18.793Z,87.80
2018-04-06T04:51:46.632Z,88.10
2018-04-06T04:54:14.234Z,88.30
2018-04-06T04:56:42.626Z,88.30
2018-04-06T04:59:11.473Z,88.50
2018-04-06T05:01:39.065Z,88.50
2018-04-06T05:04:06.639Z,88.80
2018-04-06T05:06:34.972Z,89.10
2018-04-06T05:09:03.796Z,88.80
2018-04-06T05:11:31.403Z,88.80
2018-04-06T05:13:59.748Z,88.40
2018-04-06T05:16:28.001Z,88.30
2018-04-06T05:18:55.598Z,88.20
2018-04-06T05:21:24.444Z,88.00
2018-04-06T05:23:52.065Z,88.20
2018-04-06T05:26:20.416Z,88.20
2018-04-06T05:28:48.300Z,88.10
2018-04-06T05:31:15.880Z,88.10
2018-04-06T05:33:44.575Z,87.90
2018-04-06T05:36:12.154Z,87.90
2018-04-06T05:38:39.854Z,88.10
2018-04-06T05:41:07.479Z,88.40
2018-04-06T05:43:35.071Z,88.00
2018-04-06T05:46:02.734Z,88.10
2018-04-06T05:48:32.042Z,88.00
2018-04-06T05:50:59.935Z,87.70
2018-04-06T05:53:28.869Z,87.80
2018-04-06T05:55:56.444Z,87.70
2018-04-06T05:58:24.437Z,87.40
2018-04-06T06:00:52.027Z,87.10
2018-04-06T06:03:20.229Z,87.30
2018-04-06T06:05:47.811Z,87.20
2018-04-06T06:08:15.383Z,87.30
2018-04-06T06:10:43.002Z,87.10
2018-04-06T06:13:10.575Z,86.80
2018-04-06T06:15:38.202Z,86.50
2018-04-06T06:18:05.788Z,86.60
2018-04-06T06:20:33.442Z,85.80
2018-04-06T06:23:01.038Z,85.50
2018-04-06T06:25:28.638Z,85.10
2018-04-06T06:27:56.236Z,85.10
2018-04-06T06:30:24.528Z,84.50
2018-04-06T06:32:52.111Z,83.90
2018-04-06T06:35:20.194Z,83.40
2018-04-06T06:37:48.562Z,82.40
2018-04-06T06:40:16.922Z,82.30
2018-04-06T06:42:44.704Z,81.90
2018-04-06T06:45:13.035Z,81.60
2018-04-06T06:47:40.955Z,80.70
2018-04-06T06:50:09.728Z,79.50
2018-04-06T06:52:37.289Z,79.50
2018-04-06T06:55:04.892Z,78.80
2018-04-06T06:57:32.477Z,77.80
2018-04-06T07:00:00.091Z,77.40
2018-04-06T07:02:28.441Z,76.60
2018-04-06T07:04:56.369Z,76.50
2018-04-06T07:07:23.993Z,77.00
2018-04-06T07:09:52.381Z,75.10
2018-04-06T07:12:21.245Z,74.50
2018-04-06T07:14:48.809Z,74.40
2018-04-06T07:17:17.194Z,73.50
2018-04-06T07:19:45.515Z,73.70
2018-04-06T07:22:13.087Z,73.00
2018-04-06T07:24:41.086Z,72.20
2018-04-06T07:27:08.667Z,72.20
2018-04-06T07:29:37.021Z,71.30
2018-04-06T07:32:04.625Z,71.20
2018-04-06T07:34:32.201Z,71.00
2018-04-06T07:36:59.836Z,70.50
2018-04-06T07:39:27.429Z,69.70
2018-04-06T07:41:55.033Z,68.50
2018-04-06T07:44:23.441Z,67.70
2018-04-06T07:46:51.022Z,67.20
2018-04-06T07:49:18.614Z,66.60
2018-04-06T07:51:46.184Z,65.80
2018-04-06T07:54:13.767Z,65.80
2018-04-06T07:56:41.809Z,65.30
2018-04-06T07:59:09.398Z,65.00
2018-04-06T08:01:37.242Z,64.20
2018-04-06T08:04:04.825Z,63.50
2018-04-06T08:06:33.166Z,62.70
2018-04-06T08:09:00.813Z,62.70
2018-04-06T08:11:28.396Z,62.40
2018-04-06T08:13:55.977Z,61.70
2018-04-06T08:16:24.343Z,61.50
2018-04-06T08:18:52.968Z,60.60
2018-04-06T08:21:20.594Z,61.20
2018-04-06T08:23:48.987Z,60.30
2018-04-06T08:26:16.948Z,59.60
2018-04-06T08:28:44.528Z,59.20
2018-04-06T08:31:12.491Z,59.00
2018-04-06T08:33:40.059Z,58.60
2018-04-06T08:36:08.049Z,57.30
2018-04-06T08:38:35.608Z,57.20
2018-04-06T08:41:03.435Z,56.70
2018-04-06T08:43:32.295Z,55.50
2018-04-06T08:45:59.868Z,55.50
2018-04-06T08:48:27.899Z,55.30
2018-04-06T08:50:55.477Z,55.20
2018-04-06T08:53:23.280Z,55.10
2018-04-06T08:55:50.867Z,55.20
2018-04-06T08:58:18.845Z,55.10
2018-04-06T09:00:46.440Z,54.00
2018-04-06T09:03:14.037Z,52.40
2018-04-06T09:05:41.967Z,50.90
2018-04-06T09:08:09.557Z,51.40
2018-04-06T09:10:37.188Z,51.20
2018-04-06T09:13:04.775Z,49.60
2018-04-06T09:15:32.387Z,49.50
2018-04-06T09:18:00.010Z,49.40
2018-04-06T09:20:28.002Z,49.60
2018-04-06T09:22:55.581Z,49.40
2018-04-06T09:25:23.149Z,49.60
2018-04-06T09:27:50.715Z,49.20
2018-04-06T09:30:18.278Z,49.50
2018-04-06T09:32:45.871Z,49.30
2018-04-06T09:35:13.894Z,49.50
2018-04-06T09:37:41.576Z,49.50
2018-04-06T09:40:09.407Z,47.80
2018-04-06T09:42:36.977Z,46.60
2018-04-06T09:45:04.834Z,46.00
2018-04-06T09:47:32.436Z,45.70
2018-04-06T09:50:00.864Z,44.80
2018-04-06T09:52:28.742Z,44.70
2018-04-06T09:54:56.312Z,44.80
2018-04-06T09:57:23.891Z,44.90
2018-04-06T09:59:52.224Z,45.40
2018-04-06T10:02:20.308Z,45.30
2018-04-06T10:04:47.886Z,44.90
2018-04-06T10:07:15.461Z,44.80
2018-04-06T10:09:44.205Z,44.20
2018-04-06T10:12:11.777Z,44.10
2018-04-06T10:14:39.390Z,44.60
2018-04-06T10:17:06.954Z,44.50
2018-04-06T10:19:34.936Z,43.40
2018-04-06T10:22:02.503Z,43.80
2018-04-06T10:24:30.451Z,43.60
2018-04-06T10:26:58.011Z,42.90
2018-04-06T10:29:25.952Z,42.90
2018-04-06T10:31:54.707Z,41.70
2018-04-06T10:34:22.287Z,41.70
2018-04-06T10:36:50.341Z,40.40
2018-04-06T10:39:17.916Z,41.40
2018-04-06T10:41:45.784Z,41.20
2018-04-06T10:44:13.344Z,40.80
2018-04-06T10:46:42.172Z,39.50
2018-04-06T10:49:10.104Z,38.70
2018-04-06T10:51:37.669Z,38.10
2018-04-06T10:54:06.510Z,39.60
2018-04-06T10:56:34.112Z,39.00
2018-04-06T10:59:01.707Z,38.60
2018-04-06T11:01:29.306Z,38.90
2018-04-06T11:03:56.875Z,38.50
2018-04-06T11:06:24.450Z,38.00
2018-04-06T11:08:52.071Z,37.70
2018-04-06T11:11:20.506Z,37.20
2018-04-06T11:13:48.839Z,37.10
2018-04-06T11:16:16.799Z,37.10
2018-04-06T11:18:44.399Z,37.00
2018-04-06T11:21:11.977Z,36.30
2018-04-06T11:23:40.843Z,35.90
2018-04-06T11:26:08.441Z,35.20
2018-04-06T11:28:36.344Z,35.40
2018-04-06T11:31:03.907Z,35.00
2018-04-06T11:33:31.806Z,34.60
2018-04-06T11:35:59.359Z,34.20
2018-04-06T11:38:27.265Z,34.20
2018-04-06T11:40:54.841Z,34.00
2018-04-06T11:43:23.244Z,34.50
2018-04-06T11:45:51.205Z,34.10
2018-04-06T11:48:18.788Z,33.90
2018-04-06T11:50:46.730Z,33.50
2018-04-06T11:53:14.327Z,33.30
2018-04-06T11:55:42.651Z,33.70
2018-04-06T11:58:10.217Z,33.60
2018-04-06T12:00:37.771Z,33.80
2018-04-06T12:03:05.353Z,32.70
2018-04-06T12:05:33.742Z,32.40
2018-04-06T12:08:01.676Z,32.40
2018-04-06T12:10:32.620Z,32.60
2018-04-06T12:13:00.224Z,31.60
2018-04-06T12:15:28.554Z,30.00
2018-04-06T12:17:56.164Z,29.90
2018-04-06T12:20:24.507Z,29.00
2018-04-06T12:22:52.339Z,28.90
2018-04-06T12:25:19.902Z,28.60
2018-04-06T12:27:48.178Z,28.60
2018-04-06T12:30:15.746Z,27.90
2018-04-06T12:32:43.314Z,28.10
2018-04-06T12:35:10.897Z,27.40
2018-04-06T12:37:38.464Z,26.90
2018-04-06T12:40:06.034Z,26.70
2018-04-06T12:42:34.414Z,26.80
2018-04-06T12:45:02.259Z,26.80
2018-04-06T12:47:29.841Z,27.10
2018-04-06T12:49:57.814Z,26.60
2018-04-06T12:52:26.170Z,26.90
2018-04-06T12:54:53.749Z,26.90
2018-04-06T12:57:22.490Z,27.00
2018-04-06T12:59:50.072Z,26.60
2018-04-06T13:02:18.135Z,26.00
2018-04-06T13:04:45.692Z,25.70
2018-04-06T13:07:13.513Z,25.20
2018-04-06T13:09:41.079Z,25.50
2018-04-06T13:12:08.968Z,25.20
2018-04-06T13:14:36.537Z,25.30
2018-04-06T13:17:04.100Z,25.30
2018-04-06T13:19:32.908Z,25.20
2018-04-06T13:22:00.467Z,25.20
2018-04-06T13:24:28.464Z,24.70
2018-04-06T13:26:56.832Z,24.00
2018-04-06T13:29:25.177Z,23.90
2018-04-06T13:31:53.132Z,23.80
2018-04-06T13:34:20.706Z,23.00
2018-04-06T13:36:48.297Z,23.40
2018-04-06T13:39:16.632Z,23.60
2018-04-06T13:41:44.579Z,23.50
2018-04-06T13:44:12.193Z,23.70
2018-04-06T13:46:40.692Z,23.10
2018-04-06T13:49:09.480Z,23.30
2018-04-06T13:51:39.163Z,23.40
2018-04-06T13:54:06.727Z,23.40
2018-04-06T13:56:34.680Z,23.30
2018-04-06T13:59:02.247Z,22.70
2018-04-06T14:01:30.165Z,23.20
2018-04-06T14:03:57.715Z,23.70
2018-04-06T14:06:26.035Z,23.90
2018-04-06T14:08:53.617Z,23.90
2018-04-06T14:11:21.167Z,23.90
2018-04-06T14:13:48.784Z,23.80
2018-04-06T14:16:16.359Z,23.70
2018-04-06T14:18:43.947Z,24.30
2018-04-06T14:21:11.525Z,24.60
2018-04-06T14:23:39.125Z,24.40
2018-04-06T14:26:06.729Z,24.80
2018-04-06T14:28:34.343Z,24.40
2018-04-06T14:31:01.920Z,23.70
2018-04-06T14:33:29.917Z,23.20
2018-04-06T14:35:57.549Z,23.10
2018-04-06T14:38:25.556Z,23.20
2018-04-06T14:40:53.115Z,23.60
2018-04-06T14:43:21.125Z,24.20
2018-04-06T14:45:48.683Z,24.20
2018-04-06T14:48:16.532Z,24.50
2018-04-06T14:50:45.467Z,24.50
2018-04-06T14:53:13.066Z,24.50
2018-04-06T14:55:41.042Z,24.80
2018-04-06T14:58:09.381Z,24.60
2018-04-06T15:00:36.951Z,24.60
2018-04-06T15:03:04.507Z,24.30
2018-04-06T15:05:32.115Z,24.70
2018-04-06T15:08:00.747Z,25.60
2018-04-06T15:10:28.295Z,25.50
2018-04-06T15:12:56.339Z,25.90
2018-04-06T15:15:23.905Z,26.40
2018-04-06T15:17:51.993Z,27.20
2018-04-06T15:20:19.544Z,27.30
2018-04-06T15:22:47.374Z,27.50
2018-04-06T15:25:16.268Z,27.30
2018-04-06T15:27:44.621Z,27.50
2018-04-06T15:30:13.006Z,27.70
2018-04-06T15:32:40.624Z,27.60
2018-04-06T15:35:08.220Z,27.50
2018-04-06T15:37:35.841Z,27.70
2018-04-06T15:40:03.423Z,27.70
2018-04-06T15:42:31.568Z,28.10
2018-04-06T15:44:59.145Z,28.40
2018-04-06T15:47:27.270Z,28.60
2018-04-06T15:49:55.596Z,28.30
2018-04-06T15:52:23.167Z,28.30
2018-04-06T15:54:50.792Z,28.10
2018-04-06T15:57:19.230Z,28.50
2018-04-06T15:59:47.208Z,28.30
2018-04-06T16:02:15.900Z,28.80
2018-04-06T16:04:44.347Z,28.70
2018-04-06T16:07:11.938Z,29.00
2018-04-06T16:09:40.297Z,27.80
2018-04-06T16:12:08.436Z,27.70
2018-04-06T16:14:36.003Z,27.70
2018-04-06T16:17:04.336Z,27.90
2018-04-06T16:19:33.489Z,28.20
2018-04-06T16:22:01.100Z,28.20
2018-04-06T16:24:29.323Z,28.70
2018-04-06T16:26:56.915Z,28.20
2018-04-06T16:29:25.342Z,27.70
2018-04-06T16:31:53.647Z,28.20
2018-04-06T16:34:21.251Z,28.20
2018-04-06T16:36:50.095Z,28.60
2018-04-06T16:39:17.850Z,28.50
2018-04-06T16:41:45.450Z,28.50
2018-04-06T16:44:14.350Z,28.70
2018-04-06T16:46:41.917Z,28.60
2018-04-06T16:49:10.001Z,28.60
2018-04-06T16:51:38.776Z,28.40
2018-04-06T16:54:07.467Z,28.60
2018-04-06T16:56:35.040Z,29.00
2018-04-06T16:59:02.768Z,29.00
2018-04-06T17:01:31.188Z,28.80
2018-04-06T17:03:59.221Z,28.70
2018-04-06T17:06:27.864Z,28.70
2018-04-06T17:08:55.426Z,28.70
2018-04-06T17:11:23.755Z,28.90
2018-04-06T17:13:51.354Z,29.10
2018-04-06T17:16:19.684Z,29.40
2018-04-06T17:18:47.313Z,29.70
2018-04-06T17:21:14.954Z,29.90
2018-04-06T17:23:43.848Z,30.20
2018-04-06T17:26:11.464Z,30.50
2018-04-06T17:28:39.665Z,30.60
2018-04-06T17:31:07.289Z,30.60
2018-04-06T17:33:35.651Z,30.70
2018-04-06T17:36:04.599Z,30.50
2018-04-06T17:38:32.211Z,30.50
2018-04-06T17:41:00.553Z,30.40
2018-04-06T17:43:28.938Z,31.00
2018-04-06T17:45:56.564Z,30.80
2018-04-06T17:48:24.510Z,30.60
2018-04-06T17:50:52.885Z,31.00
2018-04-06T17:53:20.558Z,30.90
2018-04-06T17:55:48.211Z,31.00
2018-04-06T17:58:15.827Z,31.50
2018-04-06T18:00:43.491Z,31.20
2018-04-06T18:03:11.086Z,31.70
2018-04-06T18:05:38.715Z,31.80
2018-04-06T18:08:06.298Z,31.90
2018-04-06T18:10:35.013Z,32.30
2018-04-06T18:13:02.585Z,32.30
2018-04-06T18:15:30.557Z,32.50
2018-04-06T18:17:58.155Z,32.90
2018-04-06T18:20:26.394Z,33.10
2018-04-06T18:22:54.012Z,33.00
2018-04-06T18:25:22.402Z,33.60
2018-04-06T18:27:50.300Z,33.50
2018-04-06T18:30:17.894Z,33.70
2018-04-06T18:32:46.003Z,34.10
2018-04-06T18:35:13.589Z,34.20
2018-04-06T18:37:41.919Z,34.60
2018-04-06T18:40:11.327Z,34.70
2018-04-06T18:42:39.714Z,35.30
2018-04-06T18:45:08.056Z,35.20
2018-04-06T18:47:36.208Z,35.20
2018-04-06T18:50:03.783Z,35.50
2018-04-06T18:52:32.142Z,35.60
2018-04-06T18:54:59.769Z,35.80
2018-04-06T18:57:27.502Z,35.90
2018-04-06T18:59:55.192Z,36.20
2018-04-06T19:02:22.829Z,36.30
2018-04-06T19:04:51.790Z,36.80
2018-04-06T19:07:19.412Z,36.30
2018-04-06T19:09:47.528Z,36.30
2018-04-06T19:12:15.205Z,36.40
2018-04-06T19:14:42.845Z,36.70
2018-04-06T19:17:11.422Z,36.70
2018-04-06T19:19:39.083Z,37.00
2018-04-06T19:22:07.486Z,37.10
2018-04-06T19:24:35.138Z,37.00
2018-04-06T19:27:02.704Z,37.10
2018-04-06T19:29:31.768Z,37.80
2018-04-06T19:31:59.397Z,37.70
2018-04-06T19:34:27.482Z,37.80
2018-04-06T19:36:55.172Z,38.30
2018-04-06T19:39:22.762Z,38.30
2018-04-06T19:41:51.269Z,38.40
2018-04-06T19:44:19.635Z,38.70
2018-04-06T19:46:48.092Z,39.00
2018-04-06T19:49:16.251Z,38.90
2018-04-06T19:51:43.820Z,39.10
2018-04-06T19:54:12.021Z,39.20
2018-04-06T19:56:41.142Z,39.80
2018-04-06T19:59:08.728Z,39.70
2018-04-06T20:01:37.087Z,39.50
2018-04-06T20:04:04.722Z,39.70
2018-04-06T20:06:33.168Z,40.10
2018-04-06T20:09:01.595Z,40.10
2018-04-06T20:11:29.992Z,40.30
2018-04-06T20:13:58.841Z,40.30
2018-04-06T20:16:27.122Z,40.50
2018-04-06T20:18:54.739Z,40.90
2018-04-06T20:21:22.756Z,41.40
2018-04-06T20:23:51.630Z,41.10
2018-04-06T20:26:19.218Z,41.10
2018-04-06T20:28:48.034Z,41.10
2018-04-06T20:31:15.648Z,41.10
2018-04-06T20:33:44.030Z,41.50
2018-04-06T20:36:12.790Z,41.30
2018-04-06T20:38:40.359Z,41.50
2018-04-06T20:41:09.004Z,41.30
2018-04-06T20:43:36.994Z,41.50
2018-04-06T20:46:04.599Z,41.50
2018-04-06T20:48:32.669Z,41.70
2018-04-06T20:51:01.058Z,41.90
2018-04-06T20:53:28.663Z,41.80
2018-04-06T20:55:56.266Z,42.10
2018-04-06T20:58:24.609Z,42.00
2018-04-06T21:00:52.421Z,41.90
2018-04-06T21:03:20.055Z,42.20
2018-04-06T21:05:48.060Z,42.30
2018-04-06T21:08:15.663Z,42.30
2018-04-06T21:10:43.725Z,42.40
2018-04-06T21:13:11.294Z,42.70
2018-04-06T21:15:38.922Z,42.80
2018-04-06T21:18:06.564Z,42.90
2018-04-06T21:20:34.180Z,42.90
2018-04-06T21:23:01.821Z,43.10
2018-04-06T21:25:29.387Z,43.50
2018-04-06T21:27:57.010Z,43.50
2018-04-06T21:30:24.588Z,43.50
2018-04-06T21:32:52.192Z,44.10
2018-04-06T21:35:19.817Z,43.50
2018-04-06T21:40:21.240Z,43.70
2018-04-06T21:42:49.589Z,43.80
2018-04-06T21:45:17.178Z,43.80
2018-04-06T21:47:45.543Z,44.10
2018-04-06T21:50:13.385Z,44.10
2018-04-06T21:52:41.736Z,44.20
2018-04-06T21:55:09.762Z,44.20
2018-04-06T21:57:38.481Z,44.20
2018-04-06T22:00:06.041Z,44.10
2018-04-06T22:02:34.180Z,44.40
2018-04-06T22:05:02.576Z,45.20
2018-04-06T22:07:30.164Z,44.70
2018-04-06T22:09:57.762Z,44.90
2018-04-06T22:12:25.344Z,44.80
2018-04-06T22:14:54.059Z,45.20
2018-04-06T22:17:21.674Z,45.20
2018-04-06T22:19:49.527Z,45.30
2018-04-06T22:22:17.132Z,45.50
2018-04-06T22:24:45.357Z,45.60
2018-04-06T22:27:12.992Z,45.80
2018-04-06T22:29:40.579Z,45.90
2018-04-06T22:32:08.197Z,46.00
2018-04-06T22:34:35.803Z,46.10
2018-04-06T22:37:03.436Z,46.20
2018-04-06T22:39:31.052Z,46.40
2018-04-06T22:41:59.546Z,46.70
2018-04-06T22:44:27.904Z,46.80
2018-04-06T22:46:56.282Z,46.80
2018-04-06T22:49:23.903Z,47.30
2018-04-06T22:51:51.508Z,47.00
2018-04-06T22:54:20.402Z,47.20
2018-04-06T22:56:48.765Z,47.30
2018-04-06T22:59:17.131Z,47.50
2018-04-06T23:01:45.112Z,47.50
2018-04-06T23:04:12.731Z,48.10
2018-04-06T23:06:40.743Z,47.90
2018-04-06T23:09:08.341Z,47.90
2018-04-06T23:11:36.560Z,47.90
2018-04-06T23:14:04.162Z,48.00
2018-04-06T23:16:32.535Z,48.10
2018-04-06T23:19:01.451Z,48.50
2018-04-06T23:21:29.073Z,47.80
2018-04-06T23:23:57.452Z,48.00
2018-04-06T23:26:25.816Z,48.00
2018-04-06T23:28:53.483Z,48.10
2018-04-06T23:31:21.696Z,48.00
2018-04-06T23:33:51.354Z,48.10
2018-04-06T23:36:18.971Z,48.10
2018-04-06T23:38:47.190Z,48.10
2018-04-06T23:41:14.801Z,48.00
2018-04-06T23:43:42.414Z,48.00
2018-04-06T23:46:10.060Z,47.90
2018-04-06T23:48:37.682Z,47.90
2018-04-06T23:51:05.318Z,48.10
2018-04-06T23:53:33.683Z,48.50
2018-04-06T23:56:01.754Z,48.40
2018-04-06T23:58:29.372Z,48.50
